sensor_id;sensor_type;location;lat;lon;timestamp;temperature;humidity
1015;DHT22;8170;48.118;11.628;2023-04-28T00:00:39;8.60;99.90
1015;DHT22;8170;48.118;11.628;2023-04-28T00:01:42;8.60;99.90
1015;DHT22;8170;48.118;11.628;2023-04-28T00:02:45;8.60;99.90
1015;DHT22;8170;48.118;11.628;2023-04-28T00:03:50;8.60;99.90
1015;DHT22;8170;48.118;11.628;2023-04-28T00:04:52;8.60;99.90
1015;DHT22;8170;48.118;11.628;2023-04-28T00:05:56;8.70;99.90
1015;DHT22;8170;48.118;11.628;2023-04-28T00:07:10;8.60;99.90
1015;DHT22;8170;48.118;11.628;2023-04-28T00:19:57;8.70;99.90
1015;DHT22;8170;48.118;11.628;2023-04-28T00:22:58;8.60;99.90
1015;DHT22;8170;48.118;11.628;2023-04-28T00:24:28;8.60;99.90
1015;DHT22;8170;48.118;11.628;2023-04-28T00:26:13;8.60;99.90
1015;DHT22;8170;48.118;11.628;2023-04-28T00:27:17;8.60;99.90
1015;DHT22;8170;48.118;11.628;2023-04-28T00:28:20;8.60;99.90
1015;DHT22;8170;48.118;11.628;2023-04-28T00:29:35;8.60;99.90
1015;DHT22;8170;48.118;11.628;2023-04-28T00:30:38;8.60;99.90
1015;DHT22;8170;48.118;11.628;2023-04-28T00:31:41;8.60;99.90
1015;DHT22;8170;48.118;11.628;2023-04-28T00:32:43;8.60;99.90
1015;DHT22;8170;48.118;11.628;2023-04-28T00:33:47;8.70;99.90
1015;DHT22;8170;48.118;11.628;2023-04-28T00:34:50;8.70;99.90
1015;DHT22;8170;48.118;11.628;2023-04-28T00:35:58;8.70;99.90
1015;DHT22;8170;48.118;11.628;2023-04-28T00:37:00;8.70;99.90
1015;DHT22;8170;48.118;11.628;2023-04-28T00:38:04;8.70;99.90
1015;DHT22;8170;48.118;11.628;2023-04-28T00:39:06;8.70;99.90
1015;DHT22;8170;48.118;11.628;2023-04-28T00:40:10;8.70;99.90
1015;DHT22;8170;48.118;11.628;2023-04-28T00:41:12;8.70;99.90
1015;DHT22;8170;48.118;11.628;2023-04-28T00:42:16;8.70;99.90
1015;DHT22;8170;48.118;11.628;2023-04-28T00:43:18;8.70;99.90
1015;DHT22;8170;48.118;11.628;2023-04-28T00:44:22;8.70;99.90
1015;DHT22;8170;48.118;11.628;2023-04-28T00:45:24;8.70;99.90
1015;DHT22;8170;48.118;11.628;2023-04-28T00:46:57;8.70;99.90
1015;DHT22;8170;48.118;11.628;2023-04-28T00:52:39;8.70;99.90
1015;DHT22;8170;48.118;11.628;2023-04-28T00:55:59;8.70;99.90
1015;DHT22;8170;48.118;11.628;2023-04-28T00:58:01;8.70;99.90
1015;DHT22;8170;48.118;11.628;2023-04-28T01:01:17;8.60;99.90
1015;DHT22;8170;48.118;11.628;2023-04-28T01:03:06;8.60;99.90
1015;DHT22;8170;48.118;11.628;2023-04-28T01:04:11;8.70;99.90
1015;DHT22;8170;48.118;11.628;2023-04-28T01:05:16;8.60;99.90
1015;DHT22;8170;48.118;11.628;2023-04-28T01:12:54;8.80;99.90
1015;DHT22;8170;48.118;11.628;2023-04-28T01:14:21;8.80;99.90
1015;DHT22;8170;48.118;11.628;2023-04-28T01:16:01;8.80;99.90
1015;DHT22;8170;48.118;11.628;2023-04-28T01:18:11;8.70;99.90
1015;DHT22;8170;48.118;11.628;2023-04-28T01:21:00;8.80;99.90
1015;DHT22;8170;48.118;11.628;2023-04-28T01:22:25;8.80;99.90
1015;DHT22;8170;48.118;11.628;2023-04-28T01:23:57;8.80;99.90
1015;DHT22;8170;48.118;11.628;2023-04-28T01:25:38;8.80;99.90
1015;DHT22;8170;48.118;11.628;2023-04-28T01:27:32;8.80;99.90
1015;DHT22;8170;48.118;11.628;2023-04-28T01:36:41;8.90;99.90
1015;DHT22;8170;48.118;11.628;2023-04-28T01:37:28;8.80;99.90
1015;DHT22;8170;48.118;11.628;2023-04-28T01:44:24;8.90;99.90
1015;DHT22;8170;48.118;11.628;2023-04-28T01:49:59;8.90;99.90
1015;DHT22;8170;48.118;11.628;2023-04-28T01:56:58;8.90;99.90
1015;DHT22;8170;48.118;11.628;2023-04-28T01:58:04;9.00;99.90
1015;DHT22;8170;48.118;11.628;2023-04-28T01:59:07;9.00;99.90
1015;DHT22;8170;48.118;11.628;2023-04-28T02:00:11;8.90;99.90
1015;DHT22;8170;48.118;11.628;2023-04-28T02:01:22;9.00;99.90
1015;DHT22;8170;48.118;11.628;2023-04-28T02:02:26;9.00;99.90
1015;DHT22;8170;48.118;11.628;2023-04-28T02:03:28;8.90;99.90
1015;DHT22;8170;48.118;11.628;2023-04-28T02:04:32;8.90;99.90
1015;DHT22;8170;48.118;11.628;2023-04-28T02:05:34;8.90;99.90
1015;DHT22;8170;48.118;11.628;2023-04-28T02:06:38;8.90;99.90
1015;DHT22;8170;48.118;11.628;2023-04-28T02:07:41;8.90;99.90
1015;DHT22;8170;48.118;11.628;2023-04-28T02:08:44;8.80;99.90
1015;DHT22;8170;48.118;11.628;2023-04-28T02:09:47;8.80;99.90
1015;DHT22;8170;48.118;11.628;2023-04-28T02:10:51;8.90;99.90
1015;DHT22;8170;48.118;11.628;2023-04-28T02:11:55;8.90;99.90
1015;DHT22;8170;48.118;11.628;2023-04-28T02:12:59;8.90;99.90
1015;DHT22;8170;48.118;11.628;2023-04-28T02:14:02;8.90;99.90
1015;DHT22;8170;48.118;11.628;2023-04-28T02:15:06;9.00;99.90
1015;DHT22;8170;48.118;11.628;2023-04-28T02:16:09;9.00;99.90
1015;DHT22;8170;48.118;11.628;2023-04-28T02:17:12;9.00;99.90
1015;DHT22;8170;48.118;11.628;2023-04-28T02:19:32;9.10;99.90
1015;DHT22;8170;48.118;11.628;2023-04-28T02:21:46;9.00;99.90
1015;DHT22;8170;48.118;11.628;2023-04-28T02:23:48;9.00;99.90
1015;DHT22;8170;48.118;11.628;2023-04-28T02:31:19;9.10;99.90
1015;DHT22;8170;48.118;11.628;2023-04-28T02:33:07;9.20;99.90
1015;DHT22;8170;48.118;11.628;2023-04-28T02:34:11;9.20;99.90
1015;DHT22;8170;48.118;11.628;2023-04-28T02:35:17;9.20;99.90
1015;DHT22;8170;48.118;11.628;2023-04-28T02:36:21;9.20;99.90
1015;DHT22;8170;48.118;11.628;2023-04-28T02:37:23;9.20;99.90
1015;DHT22;8170;48.118;11.628;2023-04-28T02:38:27;9.10;99.90
1015;DHT22;8170;48.118;11.628;2023-04-28T02:39:29;8.90;99.90
1015;DHT22;8170;48.118;11.628;2023-04-28T02:40:34;8.80;99.90
1015;DHT22;8170;48.118;11.628;2023-04-28T02:41:36;8.80;99.90
1015;DHT22;8170;48.118;11.628;2023-04-28T02:42:40;8.90;99.90
1015;DHT22;8170;48.118;11.628;2023-04-28T02:43:42;8.90;99.90
1015;DHT22;8170;48.118;11.628;2023-04-28T02:44:47;8.90;99.90
1015;DHT22;8170;48.118;11.628;2023-04-28T02:45:49;8.90;99.90
1015;DHT22;8170;48.118;11.628;2023-04-28T02:46:53;9.00;99.90
1015;DHT22;8170;48.118;11.628;2023-04-28T02:47:56;9.00;99.90
1015;DHT22;8170;48.118;11.628;2023-04-28T02:49:03;9.10;99.90
1015;DHT22;8170;48.118;11.628;2023-04-28T02:50:07;9.10;99.90
1015;DHT22;8170;48.118;11.628;2023-04-28T02:51:11;9.10;99.90
1015;DHT22;8170;48.118;11.628;2023-04-28T02:52:15;9.10;99.90
1015;DHT22;8170;48.118;11.628;2023-04-28T02:53:19;9.20;99.90
1015;DHT22;8170;48.118;11.628;2023-04-28T02:54:21;9.20;99.90
1015;DHT22;8170;48.118;11.628;2023-04-28T02:55:30;9.20;99.90
1015;DHT22;8170;48.118;11.628;2023-04-28T02:56:34;9.20;99.90
1015;DHT22;8170;48.118;11.628;2023-04-28T02:57:38;9.20;99.90
1015;DHT22;8170;48.118;11.628;2023-04-28T02:58:41;9.10;99.90
1015;DHT22;8170;48.118;11.628;2023-04-28T02:59:44;9.10;99.90
1015;DHT22;8170;48.118;11.628;2023-04-28T03:00:48;8.90;99.90
1015;DHT22;8170;48.118;11.628;2023-04-28T03:01:52;8.80;99.90
1015;DHT22;8170;48.118;11.628;2023-04-28T03:02:54;8.80;99.90
1015;DHT22;8170;48.118;11.628;2023-04-28T03:03:58;8.80;99.90
1015;DHT22;8170;48.118;11.628;2023-04-28T03:05:01;8.90;99.90
1015;DHT22;8170;48.118;11.628;2023-04-28T03:06:05;8.80;99.90
1015;DHT22;8170;48.118;11.628;2023-04-28T03:07:07;8.80;99.90
1015;DHT22;8170;48.118;11.628;2023-04-28T03:08:11;8.60;99.90
1015;DHT22;8170;48.118;11.628;2023-04-28T03:09:14;8.50;99.90
1015;DHT22;8170;48.118;11.628;2023-04-28T03:10:17;8.50;99.90
1015;DHT22;8170;48.118;11.628;2023-04-28T03:20:08;8.80;99.90
1015;DHT22;8170;48.118;11.628;2023-04-28T03:22:06;8.80;99.90
1015;DHT22;8170;48.118;11.628;2023-04-28T03:23:09;8.90;99.90
1015;DHT22;8170;48.118;11.628;2023-04-28T03:24:12;9.00;99.90
1015;DHT22;8170;48.118;11.628;2023-04-28T03:25:16;9.00;99.90
1015;DHT22;8170;48.118;11.628;2023-04-28T03:26:22;8.90;99.90
1015;DHT22;8170;48.118;11.628;2023-04-28T03:27:27;8.90;99.90
1015;DHT22;8170;48.118;11.628;2023-04-28T03:31:09;9.00;99.90
1015;DHT22;8170;48.118;11.628;2023-04-28T03:31:35;9.10;99.90
1015;DHT22;8170;48.118;11.628;2023-04-28T03:40:33;9.10;99.90
1015;DHT22;8170;48.118;11.628;2023-04-28T03:41:56;9.10;99.90
1015;DHT22;8170;48.118;11.628;2023-04-28T03:47:32;8.90;99.90
1015;DHT22;8170;48.118;11.628;2023-04-28T03:49:30;8.90;99.90
1015;DHT22;8170;48.118;11.628;2023-04-28T03:50:33;9.00;99.90
1015;DHT22;8170;48.118;11.628;2023-04-28T03:51:36;9.10;99.90
1015;DHT22;8170;48.118;11.628;2023-04-28T03:52:39;9.10;99.90
1015;DHT22;8170;48.118;11.628;2023-04-28T03:53:42;9.10;99.90
1015;DHT22;8170;48.118;11.628;2023-04-28T03:54:44;9.20;99.90
1015;DHT22;8170;48.118;11.628;2023-04-28T03:55:49;9.20;99.90
1015;DHT22;8170;48.118;11.628;2023-04-28T03:56:52;9.20;99.90
1015;DHT22;8170;48.118;11.628;2023-04-28T03:57:56;9.20;99.90
1015;DHT22;8170;48.118;11.628;2023-04-28T03:58:58;9.20;99.90
1015;DHT22;8170;48.118;11.628;2023-04-28T04:01:26;9.30;99.90
1015;DHT22;8170;48.118;11.628;2023-04-28T04:02:29;9.30;99.90
1015;DHT22;8170;48.118;11.628;2023-04-28T04:03:32;9.30;99.90
1015;DHT22;8170;48.118;11.628;2023-04-28T04:04:36;9.30;99.90
1015;DHT22;8170;48.118;11.628;2023-04-28T04:05:39;9.30;99.90
1015;DHT22;8170;48.118;11.628;2023-04-28T04:06:43;9.30;99.90
1015;DHT22;8170;48.118;11.628;2023-04-28T04:07:47;9.30;99.90
1015;DHT22;8170;48.118;11.628;2023-04-28T04:08:50;9.30;99.90
1015;DHT22;8170;48.118;11.628;2023-04-28T04:09:52;9.30;99.90
1015;DHT22;8170;48.118;11.628;2023-04-28T04:10:58;9.30;99.90
1015;DHT22;8170;48.118;11.628;2023-04-28T04:12:01;9.30;99.90
1015;DHT22;8170;48.118;11.628;2023-04-28T04:13:04;9.40;99.90
1015;DHT22;8170;48.118;11.628;2023-04-28T04:14:06;9.40;99.90
1015;DHT22;8170;48.118;11.628;2023-04-28T04:15:10;9.40;99.90
1015;DHT22;8170;48.118;11.628;2023-04-28T04:16:15;9.50;99.90
1015;DHT22;8170;48.118;11.628;2023-04-28T04:17:18;9.50;99.90
1015;DHT22;8170;48.118;11.628;2023-04-28T04:18:24;9.50;99.90
1015;DHT22;8170;48.118;11.628;2023-04-28T04:19:56;9.40;99.90
1015;DHT22;8170;48.118;11.628;2023-04-28T04:21:00;9.40;99.90
1015;DHT22;8170;48.118;11.628;2023-04-28T04:22:03;9.40;99.90
1015;DHT22;8170;48.118;11.628;2023-04-28T04:23:07;9.40;99.90
1015;DHT22;8170;48.118;11.628;2023-04-28T04:24:09;9.40;99.90
1015;DHT22;8170;48.118;11.628;2023-04-28T04:25:13;9.50;99.90
1015;DHT22;8170;48.118;11.628;2023-04-28T04:26:18;9.40;99.90
1015;DHT22;8170;48.118;11.628;2023-04-28T04:27:24;9.40;99.90
1015;DHT22;8170;48.118;11.628;2023-04-28T04:28:26;9.20;99.90
1015;DHT22;8170;48.118;11.628;2023-04-28T04:29:30;9.10;99.90
1015;DHT22;8170;48.118;11.628;2023-04-28T04:30:34;9.10;99.90
1015;DHT22;8170;48.118;11.628;2023-04-28T04:31:38;9.10;99.90
1015;DHT22;8170;48.118;11.628;2023-04-28T04:32:41;9.00;99.90
1015;DHT22;8170;48.118;11.628;2023-04-28T04:33:44;9.00;99.90
1015;DHT22;8170;48.118;11.628;2023-04-28T04:34:47;9.00;99.90
1015;DHT22;8170;48.118;11.628;2023-04-28T04:35:52;9.10;99.90
1015;DHT22;8170;48.118;11.628;2023-04-28T04:36:54;9.20;99.90
1015;DHT22;8170;48.118;11.628;2023-04-28T04:37:58;9.30;99.90
1015;DHT22;8170;48.118;11.628;2023-04-28T04:39:02;9.30;99.90
1015;DHT22;8170;48.118;11.628;2023-04-28T04:40:07;9.40;99.90
1015;DHT22;8170;48.118;11.628;2023-04-28T04:41:18;9.30;99.90
1015;DHT22;8170;48.118;11.628;2023-04-28T04:42:26;9.30;99.90
1015;DHT22;8170;48.118;11.628;2023-04-28T04:43:40;9.30;99.90
1015;DHT22;8170;48.118;11.628;2023-04-28T04:44:43;9.30;99.90
1015;DHT22;8170;48.118;11.628;2023-04-28T04:45:56;9.30;99.90
1015;DHT22;8170;48.118;11.628;2023-04-28T04:47:00;9.30;99.90
1015;DHT22;8170;48.118;11.628;2023-04-28T04:48:04;9.30;99.90
1015;DHT22;8170;48.118;11.628;2023-04-28T04:49:08;9.30;99.90
1015;DHT22;8170;48.118;11.628;2023-04-28T04:50:11;9.30;99.90
1015;DHT22;8170;48.118;11.628;2023-04-28T04:51:14;9.30;99.90
1015;DHT22;8170;48.118;11.628;2023-04-28T04:52:17;9.40;99.90
1015;DHT22;8170;48.118;11.628;2023-04-28T04:53:21;9.40;99.90
1015;DHT22;8170;48.118;11.628;2023-04-28T04:54:23;9.40;99.90
1015;DHT22;8170;48.118;11.628;2023-04-28T04:55:28;9.40;99.90
1015;DHT22;8170;48.118;11.628;2023-04-28T04:56:32;9.40;99.90
1015;DHT22;8170;48.118;11.628;2023-04-28T04:57:36;9.40;99.90
1015;DHT22;8170;48.118;11.628;2023-04-28T04:58:45;9.40;99.90
1015;DHT22;8170;48.118;11.628;2023-04-28T05:00:01;9.30;99.90
1015;DHT22;8170;48.118;11.628;2023-04-28T05:01:03;9.30;99.90
1015;DHT22;8170;48.118;11.628;2023-04-28T05:02:07;9.30;99.90
1015;DHT22;8170;48.118;11.628;2023-04-28T05:03:10;9.30;99.90
1015;DHT22;8170;48.118;11.628;2023-04-28T05:04:15;9.30;99.90
1015;DHT22;8170;48.118;11.628;2023-04-28T05:05:18;9.40;99.90
1015;DHT22;8170;48.118;11.628;2023-04-28T05:06:40;9.40;99.90
1015;DHT22;8170;48.118;11.628;2023-04-28T05:07:42;9.50;99.90
1015;DHT22;8170;48.118;11.628;2023-04-28T05:08:46;9.50;99.90
1015;DHT22;8170;48.118;11.628;2023-04-28T05:09:48;9.50;99.90
1015;DHT22;8170;48.118;11.628;2023-04-28T05:10:52;9.60;99.90
1015;DHT22;8170;48.118;11.628;2023-04-28T05:11:56;9.60;99.90
1015;DHT22;8170;48.118;11.628;2023-04-28T05:13:00;9.60;99.90
1015;DHT22;8170;48.118;11.628;2023-04-28T05:14:02;9.50;99.90
1015;DHT22;8170;48.118;11.628;2023-04-28T05:15:07;9.50;99.90
1015;DHT22;8170;48.118;11.628;2023-04-28T05:16:24;9.50;99.90
1015;DHT22;8170;48.118;11.628;2023-04-28T05:17:41;9.50;99.90
1015;DHT22;8170;48.118;11.628;2023-04-28T05:18:44;9.60;99.90
1015;DHT22;8170;48.118;11.628;2023-04-28T05:19:47;9.60;99.90
1015;DHT22;8170;48.118;11.628;2023-04-28T05:20:50;9.60;99.90
1015;DHT22;8170;48.118;11.628;2023-04-28T05:21:54;9.70;99.90
1015;DHT22;8170;48.118;11.628;2023-04-28T05:22:57;9.70;99.90
1015;DHT22;8170;48.118;11.628;2023-04-28T05:24:01;9.70;99.90
1015;DHT22;8170;48.118;11.628;2023-04-28T05:25:04;9.70;99.90
1015;DHT22;8170;48.118;11.628;2023-04-28T05:26:08;9.70;99.90
1015;DHT22;8170;48.118;11.628;2023-04-28T05:27:12;9.70;99.90
1015;DHT22;8170;48.118;11.628;2023-04-28T05:28:16;9.70;99.90
1015;DHT22;8170;48.118;11.628;2023-04-28T05:29:25;9.70;99.90
1015;DHT22;8170;48.118;11.628;2023-04-28T05:30:28;9.80;99.90
1015;DHT22;8170;48.118;11.628;2023-04-28T05:31:31;9.80;99.90
1015;DHT22;8170;48.118;11.628;2023-04-28T05:32:36;9.80;99.90
1015;DHT22;8170;48.118;11.628;2023-04-28T05:33:40;9.80;99.90
1015;DHT22;8170;48.118;11.628;2023-04-28T05:34:43;9.80;99.90
1015;DHT22;8170;48.118;11.628;2023-04-28T05:35:46;9.80;99.90
1015;DHT22;8170;48.118;11.628;2023-04-28T05:36:50;9.90;99.90
1015;DHT22;8170;48.118;11.628;2023-04-28T05:37:56;9.90;99.90
1015;DHT22;8170;48.118;11.628;2023-04-28T05:39:00;9.90;99.90
1015;DHT22;8170;48.118;11.628;2023-04-28T05:40:03;9.90;99.90
1015;DHT22;8170;48.118;11.628;2023-04-28T05:41:09;9.90;99.90
1015;DHT22;8170;48.118;11.628;2023-04-28T05:47:41;10.00;99.90
1015;DHT22;8170;48.118;11.628;2023-04-28T05:48:45;10.10;99.90
1015;DHT22;8170;48.118;11.628;2023-04-28T05:49:48;10.10;99.90
1015;DHT22;8170;48.118;11.628;2023-04-28T05:50:51;10.10;99.90
1015;DHT22;8170;48.118;11.628;2023-04-28T05:51:54;10.00;99.90
1015;DHT22;8170;48.118;11.628;2023-04-28T05:52:57;9.90;99.90
1015;DHT22;8170;48.118;11.628;2023-04-28T05:54:00;9.70;99.90
1015;DHT22;8170;48.118;11.628;2023-04-28T05:55:06;9.70;99.90
1015;DHT22;8170;48.118;11.628;2023-04-28T05:56:10;9.60;99.90
1015;DHT22;8170;48.118;11.628;2023-04-28T05:57:13;9.70;99.90
1015;DHT22;8170;48.118;11.628;2023-04-28T05:58:17;9.70;99.90
1015;DHT22;8170;48.118;11.628;2023-04-28T05:59:20;9.70;99.90
1015;DHT22;8170;48.118;11.628;2023-04-28T06:00:28;9.70;99.90
1015;DHT22;8170;48.118;11.628;2023-04-28T06:01:34;9.70;99.90
1015;DHT22;8170;48.118;11.628;2023-04-28T06:02:42;9.80;99.90
1015;DHT22;8170;48.118;11.628;2023-04-28T06:03:46;9.80;99.90
1015;DHT22;8170;48.118;11.628;2023-04-28T06:04:52;9.90;99.90
1015;DHT22;8170;48.118;11.628;2023-04-28T06:05:57;9.90;99.90
1015;DHT22;8170;48.118;11.628;2023-04-28T06:07:04;10.00;99.90
1015;DHT22;8170;48.118;11.628;2023-04-28T06:08:34;10.00;99.90
1015;DHT22;8170;48.118;11.628;2023-04-28T06:09:38;10.00;99.90
1015;DHT22;8170;48.118;11.628;2023-04-28T06:10:41;10.00;99.90
1015;DHT22;8170;48.118;11.628;2023-04-28T06:11:46;10.00;99.90
1015;DHT22;8170;48.118;11.628;2023-04-28T06:12:49;10.10;99.90
1015;DHT22;8170;48.118;11.628;2023-04-28T06:13:53;10.10;99.90
1015;DHT22;8170;48.118;11.628;2023-04-28T06:14:56;10.10;99.90
1015;DHT22;8170;48.118;11.628;2023-04-28T06:16:00;10.10;99.90
1015;DHT22;8170;48.118;11.628;2023-04-28T06:17:03;10.10;99.90
1015;DHT22;8170;48.118;11.628;2023-04-28T06:18:08;10.00;99.90
1015;DHT22;8170;48.118;11.628;2023-04-28T06:19:12;10.00;99.90
1015;DHT22;8170;48.118;11.628;2023-04-28T06:23:33;9.90;99.90
1015;DHT22;8170;48.118;11.628;2023-04-28T06:25:16;10.00;99.90
1015;DHT22;8170;48.118;11.628;2023-04-28T06:28:28;9.90;99.90
1015;DHT22;8170;48.118;11.628;2023-04-28T06:30:46;9.80;99.90
1015;DHT22;8170;48.118;11.628;2023-04-28T06:50:45;10.90;99.90
1015;DHT22;8170;48.118;11.628;2023-04-28T06:52:05;10.80;99.90
1015;DHT22;8170;48.118;11.628;2023-04-28T06:53:10;10.80;99.90
1015;DHT22;8170;48.118;11.628;2023-04-28T06:54:12;10.80;99.90
1015;DHT22;8170;48.118;11.628;2023-04-28T06:55:18;10.80;99.90
1015;DHT22;8170;48.118;11.628;2023-04-28T06:56:20;10.80;99.90
1015;DHT22;8170;48.118;11.628;2023-04-28T06:57:26;10.90;99.90
1015;DHT22;8170;48.118;11.628;2023-04-28T06:58:29;11.00;99.90
1015;DHT22;8170;48.118;11.628;2023-04-28T06:59:32;11.00;99.90
1015;DHT22;8170;48.118;11.628;2023-04-28T07:00:35;11.10;99.90
1015;DHT22;8170;48.118;11.628;2023-04-28T07:01:37;11.30;99.90
1015;DHT22;8170;48.118;11.628;2023-04-28T07:02:41;11.40;99.90
1015;DHT22;8170;48.118;11.628;2023-04-28T07:03:45;11.60;99.90
1015;DHT22;8170;48.118;11.628;2023-04-28T07:04:49;11.70;99.90
1015;DHT22;8170;48.118;11.628;2023-04-28T07:05:51;11.80;99.90
1015;DHT22;8170;48.118;11.628;2023-04-28T07:06:55;11.80;99.90
1015;DHT22;8170;48.118;11.628;2023-04-28T07:07:58;11.80;99.90
1015;DHT22;8170;48.118;11.628;2023-04-28T07:09:00;11.80;99.90
1015;DHT22;8170;48.118;11.628;2023-04-28T07:10:06;11.90;99.90
1015;DHT22;8170;48.118;11.628;2023-04-28T07:11:08;11.90;99.90
1015;DHT22;8170;48.118;11.628;2023-04-28T07:12:12;11.80;99.90
1015;DHT22;8170;48.118;11.628;2023-04-28T07:13:14;11.80;99.90
1015;DHT22;8170;48.118;11.628;2023-04-28T07:14:17;11.70;99.90
1015;DHT22;8170;48.118;11.628;2023-04-28T07:15:19;11.80;99.90
1015;DHT22;8170;48.118;11.628;2023-04-28T07:16:25;11.80;99.90
1015;DHT22;8170;48.118;11.628;2023-04-28T07:17:27;12.00;99.90
1015;DHT22;8170;48.118;11.628;2023-04-28T07:18:30;12.10;99.90
1015;DHT22;8170;48.118;11.628;2023-04-28T07:19:35;12.30;99.90
1015;DHT22;8170;48.118;11.628;2023-04-28T07:20:37;12.20;99.90
1015;DHT22;8170;48.118;11.628;2023-04-28T07:21:40;12.30;99.90
1015;DHT22;8170;48.118;11.628;2023-04-28T07:22:42;12.30;99.90
1015;DHT22;8170;48.118;11.628;2023-04-28T07:23:45;12.30;99.90
1015;DHT22;8170;48.118;11.628;2023-04-28T07:24:47;12.30;99.90
1015;DHT22;8170;48.118;11.628;2023-04-28T07:25:50;12.20;99.90
1015;DHT22;8170;48.118;11.628;2023-04-28T07:26:52;12.20;99.90
1015;DHT22;8170;48.118;11.628;2023-04-28T07:27:55;12.30;99.90
1015;DHT22;8170;48.118;11.628;2023-04-28T07:28:58;12.40;99.90
1015;DHT22;8170;48.118;11.628;2023-04-28T07:30:01;12.40;99.90
1015;DHT22;8170;48.118;11.628;2023-04-28T07:31:19;12.50;99.90
1015;DHT22;8170;48.118;11.628;2023-04-28T07:32:22;12.50;99.90
1015;DHT22;8170;48.118;11.628;2023-04-28T07:33:25;12.60;99.90
1015;DHT22;8170;48.118;11.628;2023-04-28T07:34:28;12.60;99.90
1015;DHT22;8170;48.118;11.628;2023-04-28T07:35:32;12.60;99.90
1015;DHT22;8170;48.118;11.628;2023-04-28T07:36:35;12.60;99.90
1015;DHT22;8170;48.118;11.628;2023-04-28T07:37:38;12.60;99.90
1015;DHT22;8170;48.118;11.628;2023-04-28T07:38:41;12.60;99.90
1015;DHT22;8170;48.118;11.628;2023-04-28T07:39:43;12.60;99.90
1015;DHT22;8170;48.118;11.628;2023-04-28T07:40:46;12.60;99.90
1015;DHT22;8170;48.118;11.628;2023-04-28T07:41:49;12.60;99.90
1015;DHT22;8170;48.118;11.628;2023-04-28T07:42:52;12.60;99.90
1015;DHT22;8170;48.118;11.628;2023-04-28T07:43:54;12.50;99.90
1015;DHT22;8170;48.118;11.628;2023-04-28T07:44:57;12.30;99.90
1015;DHT22;8170;48.118;11.628;2023-04-28T07:45:59;12.30;99.90
1015;DHT22;8170;48.118;11.628;2023-04-28T07:47:03;12.30;99.90
1015;DHT22;8170;48.118;11.628;2023-04-28T07:48:05;12.30;99.90
1015;DHT22;8170;48.118;11.628;2023-04-28T07:49:09;12.30;99.90
1015;DHT22;8170;48.118;11.628;2023-04-28T07:50:11;12.40;99.90
1015;DHT22;8170;48.118;11.628;2023-04-28T07:51:15;12.50;99.90
1015;DHT22;8170;48.118;11.628;2023-04-28T07:52:18;12.50;99.90
1015;DHT22;8170;48.118;11.628;2023-04-28T07:53:21;12.50;99.90
1015;DHT22;8170;48.118;11.628;2023-04-28T07:54:24;12.60;99.90
1015;DHT22;8170;48.118;11.628;2023-04-28T07:55:27;12.60;99.90
1015;DHT22;8170;48.118;11.628;2023-04-28T07:56:29;12.60;99.90
1015;DHT22;8170;48.118;11.628;2023-04-28T07:57:33;12.60;99.90
1015;DHT22;8170;48.118;11.628;2023-04-28T07:58:35;12.50;99.90
1015;DHT22;8170;48.118;11.628;2023-04-28T07:59:38;12.50;99.90
1015;DHT22;8170;48.118;11.628;2023-04-28T08:00:41;12.50;99.90
1015;DHT22;8170;48.118;11.628;2023-04-28T08:01:45;12.50;99.90
1015;DHT22;8170;48.118;11.628;2023-04-28T08:02:48;12.50;99.90
1015;DHT22;8170;48.118;11.628;2023-04-28T08:03:50;12.60;99.90
1015;DHT22;8170;48.118;11.628;2023-04-28T08:04:54;12.60;99.90
1015;DHT22;8170;48.118;11.628;2023-04-28T08:05:57;12.50;99.90
1015;DHT22;8170;48.118;11.628;2023-04-28T08:07:01;12.50;99.90
1015;DHT22;8170;48.118;11.628;2023-04-28T08:08:04;12.60;99.90
1015;DHT22;8170;48.118;11.628;2023-04-28T08:09:07;12.60;99.90
1015;DHT22;8170;48.118;11.628;2023-04-28T08:10:10;12.60;99.90
1015;DHT22;8170;48.118;11.628;2023-04-28T08:11:12;12.60;99.90
1015;DHT22;8170;48.118;11.628;2023-04-28T08:12:16;12.70;99.90
1015;DHT22;8170;48.118;11.628;2023-04-28T08:13:18;12.70;99.90
1015;DHT22;8170;48.118;11.628;2023-04-28T08:14:21;12.70;99.90
1015;DHT22;8170;48.118;11.628;2023-04-28T08:15:24;12.70;99.90
1015;DHT22;8170;48.118;11.628;2023-04-28T08:16:28;12.70;99.90
1015;DHT22;8170;48.118;11.628;2023-04-28T08:17:32;12.70;99.90
1015;DHT22;8170;48.118;11.628;2023-04-28T08:18:35;12.70;99.90
1015;DHT22;8170;48.118;11.628;2023-04-28T08:19:37;12.80;99.90
1015;DHT22;8170;48.118;11.628;2023-04-28T08:20:40;12.80;99.90
1015;DHT22;8170;48.118;11.628;2023-04-28T08:21:43;12.80;99.90
1015;DHT22;8170;48.118;11.628;2023-04-28T08:22:47;12.80;99.90
1015;DHT22;8170;48.118;11.628;2023-04-28T08:23:50;12.80;99.90
1015;DHT22;8170;48.118;11.628;2023-04-28T08:24:52;12.70;99.90
1015;DHT22;8170;48.118;11.628;2023-04-28T08:25:55;12.70;99.90
1015;DHT22;8170;48.118;11.628;2023-04-28T08:26:59;12.80;99.90
1015;DHT22;8170;48.118;11.628;2023-04-28T08:28:04;12.80;99.90
1015;DHT22;8170;48.118;11.628;2023-04-28T08:29:07;12.80;99.90
1015;DHT22;8170;48.118;11.628;2023-04-28T08:30:10;12.70;99.90
1015;DHT22;8170;48.118;11.628;2023-04-28T08:31:14;12.70;99.90
1015;DHT22;8170;48.118;11.628;2023-04-28T08:32:19;12.80;99.90
1015;DHT22;8170;48.118;11.628;2023-04-28T08:33:22;12.80;99.90
1015;DHT22;8170;48.118;11.628;2023-04-28T08:34:25;12.80;99.90
1015;DHT22;8170;48.118;11.628;2023-04-28T08:35:29;12.80;99.90
1015;DHT22;8170;48.118;11.628;2023-04-28T08:36:31;12.70;99.90
1015;DHT22;8170;48.118;11.628;2023-04-28T08:37:35;12.70;99.90
1015;DHT22;8170;48.118;11.628;2023-04-28T08:38:39;12.70;99.90
1015;DHT22;8170;48.118;11.628;2023-04-28T08:39:43;12.70;99.90
1015;DHT22;8170;48.118;11.628;2023-04-28T08:40:45;12.60;99.90
1015;DHT22;8170;48.118;11.628;2023-04-28T08:41:49;12.50;99.90
1015;DHT22;8170;48.118;11.628;2023-04-28T08:42:54;12.40;99.90
1015;DHT22;8170;48.118;11.628;2023-04-28T08:43:57;12.30;99.90
1015;DHT22;8170;48.118;11.628;2023-04-28T08:45:02;12.20;99.90
1015;DHT22;8170;48.118;11.628;2023-04-28T08:46:06;12.20;99.90
1015;DHT22;8170;48.118;11.628;2023-04-28T08:47:11;12.30;99.90
1015;DHT22;8170;48.118;11.628;2023-04-28T08:48:18;12.30;99.90
1015;DHT22;8170;48.118;11.628;2023-04-28T08:49:22;12.40;99.90
1015;DHT22;8170;48.118;11.628;2023-04-28T08:50:30;12.50;99.90
1015;DHT22;8170;48.118;11.628;2023-04-28T08:51:37;12.40;99.90
1015;DHT22;8170;48.118;11.628;2023-04-28T08:52:43;12.30;99.90
1015;DHT22;8170;48.118;11.628;2023-04-28T08:53:49;12.20;99.90
1015;DHT22;8170;48.118;11.628;2023-04-28T08:54:59;12.10;99.90
1015;DHT22;8170;48.118;11.628;2023-04-28T08:56:04;12.10;99.90
1015;DHT22;8170;48.118;11.628;2023-04-28T08:57:08;12.10;99.90
1015;DHT22;8170;48.118;11.628;2023-04-28T08:58:12;12.00;99.90
1015;DHT22;8170;48.118;11.628;2023-04-28T08:59:15;12.00;99.90
1015;DHT22;8170;48.118;11.628;2023-04-28T09:00:19;11.90;99.90
1015;DHT22;8170;48.118;11.628;2023-04-28T09:01:22;12.00;99.90
1015;DHT22;8170;48.118;11.628;2023-04-28T09:02:26;12.00;99.90
1015;DHT22;8170;48.118;11.628;2023-04-28T09:03:28;12.00;99.90
1015;DHT22;8170;48.118;11.628;2023-04-28T09:04:32;12.10;99.90
1015;DHT22;8170;48.118;11.628;2023-04-28T09:05:35;12.20;99.90
1015;DHT22;8170;48.118;11.628;2023-04-28T09:06:39;12.20;99.90
1015;DHT22;8170;48.118;11.628;2023-04-28T09:07:45;12.30;99.90